首页
METAR-TAF:

METAR-TAF

机场 :

熊本機場

熊本, 日本

纬度: 32-50N, 经度: 130-51E, 海拔: 193米

当前天气观测

该预报发布于1小时和3分钟前的07:00 UTC
风速5节,风向西北,在西之间变化
温度 15°C
湿度 44%
气压 1019 hPa
能见度10公里或以上
少量云层高于6000英尺
多云层高于16000英尺
多云

METAR: RJFT 040700Z 31005KT 260V360 9999 FEW060 BKN160 BKN/// 15/03 Q1019

时间: 17:03 (08:03 UTC)

预报

该预报发布于2小时和52分钟前的05:11 UTC
预报有效从04日的 06点(UTC)到 05日的 12点(UTC)
风速3节,风向东北
能见度10公里或以上
少量云层高于4000英尺
短暂存在
从 04日的 14点(UTC)到 04日的 21点(UTC)
能見度: 4000
小雨, 轻雾
成为
从 05日的 00点(UTC)到 05日的 03点(UTC)
风速10节,风向
短暂存在
从 05日的 00点(UTC)到 05日的 03点(UTC)
风速16节,风向,有时为26节阵风
短暂存在
从 05日的 03点(UTC)到 05日的 06点(UTC)
能見度: 4000
小阵雨, 轻雾
短暂存在
从 05日的 06点(UTC)到 05日的 12点(UTC)
能見度: 3000
少量云层高于300英尺
散云层高于500英尺
多云层高于800英尺
阵雨, 轻雾,

TAF: RJFT 040511Z 0406/0512 04003KT 9999 FEW040 TEMPO 0414/0421 4000 -RA BR BECMG 0500/0503 10010KT TEMPO 0500/0503 09016G26KT TEMPO 0503/0506 4000 -SHRA BR TEMPO 0506/0512 3000 SHRA BR FEW003 SCT005 BKN008

超过4000个机场的气象观测和天气预报(METAR&TAF报告)。

可查询的气象台以黄色和红色小点在地图上表示。

将鼠标移到小点上方,可查看气象台名称。

然后点击查看天气观测和预报。

如需切换地图:点击带黑十字的绿色按钮放大地图;点击带横线的绿色按钮缩小地图;或者点击绿色箭头查看邻近地区的地图。


METAR-TAF: